< < Back
Terminal Aerodrome Forecast


Current Version              Previous Versions:   1  2  3  4  5  6  7  8  9  

Terminal Aerodrome Forecast

426
FTUS42 KGSP 211741 AAB
TAFCLT
TAF AMD
KCLT 211741Z 2118/2218 07004KT P6SM BKN040
     FM220400 04008KT P6SM -RA OVC015
     FM220700 04008KT P6SM -RA OVC007
     FM220900 03009KT 5SM -RADZ BR OVC006
     FM221600 03007KT 5SM -DZ BR OVC003=

Latest METAR

495
SAUS70 KWBC 220000 RRE
MTRCLT
METAR KCLT 212352Z 05008KT 10SM BKN046 BKN080 OVC250 09/02 A3019 RMK AO2
SLP223 T00890017 10106 20089 58004


USA.gov is the U.S. government's official web portal to all federal, state and local government web resources and services.